sensor_id;sensor_type;location;lat;lon;timestamp;P1;durP1;ratioP1;P2;durP2;ratioP2
64395;SDS011;50717;53.360;6.290;2022-12-18T00:01:56;112.93;;;36.00;;
64395;SDS011;50717;53.360;6.290;2022-12-18T00:04:23;106.40;;;36.67;;
64395;SDS011;50717;53.360;6.290;2022-12-18T00:06:49;117.45;;;38.13;;
64395;SDS011;50717;53.360;6.290;2022-12-18T00:09:16;107.35;;;36.03;;
64395;SDS011;50717;53.360;6.290;2022-12-18T00:14:08;110.50;;;36.83;;
64395;SDS011;50717;53.360;6.290;2022-12-18T00:16:35;110.88;;;36.03;;
64395;SDS011;50717;53.360;6.290;2022-12-18T00:19:02;111.95;;;34.25;;
64395;SDS011;50717;53.360;6.290;2022-12-18T00:21:28;108.22;;;36.95;;
64395;SDS011;50717;53.360;6.290;2022-12-18T00:23:55;105.68;;;35.67;;
64395;SDS011;50717;53.360;6.290;2022-12-18T00:28:47;108.95;;;36.80;;
64395;SDS011;50717;53.360;6.290;2022-12-18T00:31:15;109.28;;;35.90;;
64395;SDS011;50717;53.360;6.290;2022-12-18T00:33:41;110.95;;;34.97;;
64395;SDS011;50717;53.360;6.290;2022-12-18T00:36:09;118.68;;;38.42;;
64395;SDS011;50717;53.360;6.290;2022-12-18T00:38:36;106.15;;;34.92;;
64395;SDS011;50717;53.360;6.290;2022-12-18T00:41:02;116.13;;;35.92;;
64395;SDS011;50717;53.360;6.290;2022-12-18T00:43:28;121.28;;;38.42;;
64395;SDS011;50717;53.360;6.290;2022-12-18T00:45:54;117.63;;;37.58;;
64395;SDS011;50717;53.360;6.290;2022-12-18T00:48:20;116.72;;;35.92;;
64395;SDS011;50717;53.360;6.290;2022-12-18T00:50:49;127.72;;;37.10;;
64395;SDS011;50717;53.360;6.290;2022-12-18T00:53:15;121.22;;;38.35;;
64395;SDS011;50717;53.360;6.290;2022-12-18T00:55:42;110.25;;;37.15;;
64395;SDS011;50717;53.360;6.290;2022-12-18T00:58:08;115.65;;;35.88;;
64395;SDS011;50717;53.360;6.290;2022-12-18T01:00:35;121.70;;;38.22;;
64395;SDS011;50717;53.360;6.290;2022-12-18T01:03:01;119.65;;;39.00;;
64395;SDS011;50717;53.360;6.290;2022-12-18T01:05:27;121.30;;;37.50;;
64395;SDS011;50717;53.360;6.290;2022-12-18T01:07:54;110.90;;;36.25;;
64395;SDS011;50717;53.360;6.290;2022-12-18T01:10:20;121.60;;;37.20;;
64395;SDS011;50717;53.360;6.290;2022-12-18T01:12:46;129.65;;;36.88;;
64395;SDS011;50717;53.360;6.290;2022-12-18T01:15:13;122.65;;;37.40;;
64395;SDS011;50717;53.360;6.290;2022-12-18T01:17:40;114.55;;;35.65;;
64395;SDS011;50717;53.360;6.290;2022-12-18T01:20:06;125.13;;;35.03;;
64395;SDS011;50717;53.360;6.290;2022-12-18T01:22:33;120.35;;;38.58;;
64395;SDS011;50717;53.360;6.290;2022-12-18T01:24:59;118.70;;;37.38;;
64395;SDS011;50717;53.360;6.290;2022-12-18T01:27:25;104.75;;;34.03;;
64395;SDS011;50717;53.360;6.290;2022-12-18T01:32:18;122.72;;;35.95;;
64395;SDS011;50717;53.360;6.290;2022-12-18T01:34:44;119.20;;;37.03;;
64395;SDS011;50717;53.360;6.290;2022-12-18T01:37:10;109.95;;;33.78;;
64395;SDS011;50717;53.360;6.290;2022-12-18T01:39:36;111.72;;;32.92;;
64395;SDS011;50717;53.360;6.290;2022-12-18T01:42:02;101.38;;;33.70;;
64395;SDS011;50717;53.360;6.290;2022-12-18T01:47:15;105.85;;;34.08;;
64395;SDS011;50717;53.360;6.290;2022-12-18T01:49:42;109.88;;;36.05;;
64395;SDS011;50717;53.360;6.290;2022-12-18T01:52:08;106.75;;;34.88;;
64395;SDS011;50717;53.360;6.290;2022-12-18T01:54:34;117.05;;;36.55;;
64395;SDS011;50717;53.360;6.290;2022-12-18T01:57:00;115.75;;;35.53;;
64395;SDS011;50717;53.360;6.290;2022-12-18T01:59:26;108.20;;;34.78;;
64395;SDS011;50717;53.360;6.290;2022-12-18T02:01:53;107.45;;;34.08;;
64395;SDS011;50717;53.360;6.290;2022-12-18T02:04:20;114.07;;;34.60;;
64395;SDS011;50717;53.360;6.290;2022-12-18T02:06:48;115.32;;;33.17;;
64395;SDS011;50717;53.360;6.290;2022-12-18T02:09:21;116.82;;;35.72;;
64395;SDS011;50717;53.360;6.290;2022-12-18T02:17:13;123.10;;;35.50;;
64395;SDS011;50717;53.360;6.290;2022-12-18T02:22:25;128.55;;;37.10;;
64395;SDS011;50717;53.360;6.290;2022-12-18T02:27:56;123.80;;;35.60;;
64395;SDS011;50717;53.360;6.290;2022-12-18T02:30:25;118.70;;;35.63;;
64395;SDS011;50717;53.360;6.290;2022-12-18T02:32:52;116.15;;;36.63;;
64395;SDS011;50717;53.360;6.290;2022-12-18T02:35:23;117.32;;;34.38;;
64395;SDS011;50717;53.360;6.290;2022-12-18T02:37:50;118.50;;;34.28;;
64395;SDS011;50717;53.360;6.290;2022-12-18T02:42:43;135.88;;;38.13;;
64395;SDS011;50717;53.360;6.290;2022-12-18T02:45:09;117.63;;;34.42;;
64395;SDS011;50717;53.360;6.290;2022-12-18T02:47:42;116.85;;;34.92;;
64395;SDS011;50717;53.360;6.290;2022-12-18T02:55:42;122.38;;;36.33;;
64395;SDS011;50717;53.360;6.290;2022-12-18T02:58:16;112.75;;;35.33;;
64395;SDS011;50717;53.360;6.290;2022-12-18T03:03:24;114.57;;;34.78;;
64395;SDS011;50717;53.360;6.290;2022-12-18T03:08:22;121.45;;;37.88;;
64395;SDS011;50717;53.360;6.290;2022-12-18T03:10:51;116.25;;;38.10;;
64395;SDS011;50717;53.360;6.290;2022-12-18T03:13:20;113.63;;;36.20;;
64395;SDS011;50717;53.360;6.290;2022-12-18T03:15:49;111.03;;;35.17;;
64395;SDS011;50717;53.360;6.290;2022-12-18T03:18:35;110.93;;;34.88;;
64395;SDS011;50717;53.360;6.290;2022-12-18T03:21:04;116.07;;;37.03;;
64395;SDS011;50717;53.360;6.290;2022-12-18T03:23:35;111.75;;;35.80;;
64395;SDS011;50717;53.360;6.290;2022-12-18T03:26:05;106.90;;;35.05;;
64395;SDS011;50717;53.360;6.290;2022-12-18T03:28:31;113.22;;;36.00;;
64395;SDS011;50717;53.360;6.290;2022-12-18T03:30:59;112.32;;;36.22;;
64395;SDS011;50717;53.360;6.290;2022-12-18T03:33:30;119.35;;;36.25;;
64395;SDS011;50717;53.360;6.290;2022-12-18T03:35:57;111.80;;;35.67;;
64395;SDS011;50717;53.360;6.290;2022-12-18T03:38:23;106.70;;;36.00;;
64395;SDS011;50717;53.360;6.290;2022-12-18T03:43:31;100.78;;;33.80;;
64395;SDS011;50717;53.360;6.290;2022-12-18T03:46:04;101.22;;;34.20;;
64395;SDS011;50717;53.360;6.290;2022-12-18T03:48:44;109.10;;;35.03;;
64395;SDS011;50717;53.360;6.290;2022-12-18T03:51:18;99.38;;;35.08;;
64395;SDS011;50717;53.360;6.290;2022-12-18T03:56:12;105.82;;;35.15;;
64395;SDS011;50717;53.360;6.290;2022-12-18T03:58:39;109.88;;;36.75;;
64395;SDS011;50717;53.360;6.290;2022-12-18T04:01:08;104.90;;;34.13;;
64395;SDS011;50717;53.360;6.290;2022-12-18T04:03:36;106.00;;;36.47;;
64395;SDS011;50717;53.360;6.290;2022-12-18T04:06:03;111.72;;;36.13;;
64395;SDS011;50717;53.360;6.290;2022-12-18T04:08:30;113.53;;;37.72;;
64395;SDS011;50717;53.360;6.290;2022-12-18T04:10:56;110.43;;;36.05;;
64395;SDS011;50717;53.360;6.290;2022-12-18T04:13:28;115.28;;;36.22;;
64395;SDS011;50717;53.360;6.290;2022-12-18T04:15:55;114.95;;;37.75;;
64395;SDS011;50717;53.360;6.290;2022-12-18T04:18:21;112.97;;;37.50;;
64395;SDS011;50717;53.360;6.290;2022-12-18T04:20:47;113.95;;;38.92;;
64395;SDS011;50717;53.360;6.290;2022-12-18T04:23:13;112.40;;;37.65;;
64395;SDS011;50717;53.360;6.290;2022-12-18T04:25:39;110.15;;;36.53;;
64395;SDS011;50717;53.360;6.290;2022-12-18T04:28:05;115.50;;;38.88;;
64395;SDS011;50717;53.360;6.290;2022-12-18T04:30:31;120.50;;;39.42;;
64395;SDS011;50717;53.360;6.290;2022-12-18T04:32:57;116.55;;;40.40;;
64395;SDS011;50717;53.360;6.290;2022-12-18T04:35:23;115.53;;;39.25;;
64395;SDS011;50717;53.360;6.290;2022-12-18T04:37:49;120.50;;;39.20;;
64395;SDS011;50717;53.360;6.290;2022-12-18T04:40:15;113.15;;;39.17;;
64395;SDS011;50717;53.360;6.290;2022-12-18T04:42:41;114.90;;;38.13;;
64395;SDS011;50717;53.360;6.290;2022-12-18T04:45:07;108.97;;;37.38;;
64395;SDS011;50717;53.360;6.290;2022-12-18T04:47:33;105.43;;;38.00;;
64395;SDS011;50717;53.360;6.290;2022-12-18T04:50:00;113.22;;;38.13;;
64395;SDS011;50717;53.360;6.290;2022-12-18T04:52:26;96.90;;;35.08;;
64395;SDS011;50717;53.360;6.290;2022-12-18T04:54:52;103.93;;;37.20;;
64395;SDS011;50717;53.360;6.290;2022-12-18T04:57:18;108.07;;;35.33;;
64395;SDS011;50717;53.360;6.290;2022-12-18T04:59:44;107.32;;;36.75;;
64395;SDS011;50717;53.360;6.290;2022-12-18T05:02:10;101.85;;;35.28;;
64395;SDS011;50717;53.360;6.290;2022-12-18T05:04:36;109.35;;;36.88;;
64395;SDS011;50717;53.360;6.290;2022-12-18T05:07:02;99.43;;;37.70;;
64395;SDS011;50717;53.360;6.290;2022-12-18T05:09:29;96.00;;;35.58;;
64395;SDS011;50717;53.360;6.290;2022-12-18T05:11:55;94.20;;;36.55;;
64395;SDS011;50717;53.360;6.290;2022-12-18T05:14:21;101.03;;;35.15;;
64395;SDS011;50717;53.360;6.290;2022-12-18T05:16:48;99.53;;;35.70;;
64395;SDS011;50717;53.360;6.290;2022-12-18T05:19:14;106.90;;;35.67;;
64395;SDS011;50717;53.360;6.290;2022-12-18T05:21:40;99.53;;;35.08;;
64395;SDS011;50717;53.360;6.290;2022-12-18T05:24:06;101.25;;;35.28;;
64395;SDS011;50717;53.360;6.290;2022-12-18T05:26:32;97.60;;;34.35;;
64395;SDS011;50717;53.360;6.290;2022-12-18T05:28:58;98.13;;;34.17;;
64395;SDS011;50717;53.360;6.290;2022-12-18T05:31:24;92.72;;;34.78;;
64395;SDS011;50717;53.360;6.290;2022-12-18T05:33:50;89.78;;;33.70;;
64395;SDS011;50717;53.360;6.290;2022-12-18T05:36:16;89.80;;;33.65;;
64395;SDS011;50717;53.360;6.290;2022-12-18T05:38:42;93.03;;;33.78;;
64395;SDS011;50717;53.360;6.290;2022-12-18T05:41:09;85.90;;;32.40;;
64395;SDS011;50717;53.360;6.290;2022-12-18T05:43:36;81.95;;;32.10;;
64395;SDS011;50717;53.360;6.290;2022-12-18T05:46:03;83.35;;;32.80;;
64395;SDS011;50717;53.360;6.290;2022-12-18T05:48:30;84.35;;;32.83;;
64395;SDS011;50717;53.360;6.290;2022-12-18T05:50:56;86.07;;;32.72;;
64395;SDS011;50717;53.360;6.290;2022-12-18T05:53:28;93.25;;;33.22;;
64395;SDS011;50717;53.360;6.290;2022-12-18T05:55:54;85.70;;;33.70;;
64395;SDS011;50717;53.360;6.290;2022-12-18T05:58:25;84.88;;;33.55;;
64395;SDS011;50717;53.360;6.290;2022-12-18T06:00:51;84.93;;;33.28;;
64395;SDS011;50717;53.360;6.290;2022-12-18T06:03:17;85.20;;;33.55;;
64395;SDS011;50717;53.360;6.290;2022-12-18T06:05:44;93.60;;;35.08;;
64395;SDS011;50717;53.360;6.290;2022-12-18T06:08:11;91.20;;;31.67;;
64395;SDS011;50717;53.360;6.290;2022-12-18T06:10:37;88.30;;;32.35;;
64395;SDS011;50717;53.360;6.290;2022-12-18T06:13:04;79.40;;;32.40;;
64395;SDS011;50717;53.360;6.290;2022-12-18T06:15:30;82.35;;;32.70;;
64395;SDS011;50717;53.360;6.290;2022-12-18T06:17:56;85.25;;;32.15;;
64395;SDS011;50717;53.360;6.290;2022-12-18T06:20:23;78.22;;;31.52;;
64395;SDS011;50717;53.360;6.290;2022-12-18T06:22:49;83.40;;;32.40;;
64395;SDS011;50717;53.360;6.290;2022-12-18T06:25:15;84.32;;;32.78;;
64395;SDS011;50717;53.360;6.290;2022-12-18T06:27:41;74.53;;;30.58;;
64395;SDS011;50717;53.360;6.290;2022-12-18T06:30:07;82.32;;;31.73;;
64395;SDS011;50717;53.360;6.290;2022-12-18T06:32:34;82.88;;;30.63;;
64395;SDS011;50717;53.360;6.290;2022-12-18T06:35:00;78.38;;;30.17;;
64395;SDS011;50717;53.360;6.290;2022-12-18T06:37:26;78.07;;;31.48;;
64395;SDS011;50717;53.360;6.290;2022-12-18T06:39:52;83.38;;;31.15;;
64395;SDS011;50717;53.360;6.290;2022-12-18T06:42:19;82.47;;;31.08;;
64395;SDS011;50717;53.360;6.290;2022-12-18T06:44:45;69.68;;;28.90;;
64395;SDS011;50717;53.360;6.290;2022-12-18T06:47:11;80.45;;;30.65;;
64395;SDS011;50717;53.360;6.290;2022-12-18T06:49:37;80.15;;;30.95;;
64395;SDS011;50717;53.360;6.290;2022-12-18T06:52:03;75.45;;;30.98;;
64395;SDS011;50717;53.360;6.290;2022-12-18T06:54:29;82.13;;;30.58;;
64395;SDS011;50717;53.360;6.290;2022-12-18T06:56:55;78.90;;;31.10;;
64395;SDS011;50717;53.360;6.290;2022-12-18T06:59:21;82.72;;;29.67;;
64395;SDS011;50717;53.360;6.290;2022-12-18T07:01:47;84.60;;;32.58;;
64395;SDS011;50717;53.360;6.290;2022-12-18T07:04:14;81.97;;;30.95;;
64395;SDS011;50717;53.360;6.290;2022-12-18T07:06:40;79.25;;;30.33;;
64395;SDS011;50717;53.360;6.290;2022-12-18T07:09:06;81.07;;;29.45;;
64395;SDS011;50717;53.360;6.290;2022-12-18T07:11:32;76.43;;;30.90;;
64395;SDS011;50717;53.360;6.290;2022-12-18T07:13:58;78.50;;;30.85;;
64395;SDS011;50717;53.360;6.290;2022-12-18T07:16:25;83.70;;;29.42;;
64395;SDS011;50717;53.360;6.290;2022-12-18T07:18:56;81.35;;;31.27;;
64395;SDS011;50717;53.360;6.290;2022-12-18T07:21:22;73.10;;;29.00;;
64395;SDS011;50717;53.360;6.290;2022-12-18T07:23:49;82.60;;;31.13;;
64395;SDS011;50717;53.360;6.290;2022-12-18T07:26:17;73.55;;;29.95;;
64395;SDS011;50717;53.360;6.290;2022-12-18T07:28:43;74.43;;;29.08;;
64395;SDS011;50717;53.360;6.290;2022-12-18T07:31:10;88.82;;;30.30;;
64395;SDS011;50717;53.360;6.290;2022-12-18T07:33:36;74.50;;;29.30;;
64395;SDS011;50717;53.360;6.290;2022-12-18T07:36:03;85.32;;;28.33;;
64395;SDS011;50717;53.360;6.290;2022-12-18T07:38:29;67.82;;;28.48;;
64395;SDS011;50717;53.360;6.290;2022-12-18T07:41:09;76.78;;;29.75;;
64395;SDS011;50717;53.360;6.290;2022-12-18T07:43:35;80.75;;;29.80;;
64395;SDS011;50717;53.360;6.290;2022-12-18T07:46:02;78.90;;;31.23;;
64395;SDS011;50717;53.360;6.290;2022-12-18T07:50:57;75.85;;;30.02;;
64395;SDS011;50717;53.360;6.290;2022-12-18T07:53:23;70.07;;;30.95;;
64395;SDS011;50717;53.360;6.290;2022-12-18T07:55:54;77.60;;;31.45;;
64395;SDS011;50717;53.360;6.290;2022-12-18T07:58:20;79.03;;;30.27;;
64395;SDS011;50717;53.360;6.290;2022-12-18T08:00:46;74.28;;;29.42;;
64395;SDS011;50717;53.360;6.290;2022-12-18T08:03:12;73.53;;;28.58;;
64395;SDS011;50717;53.360;6.290;2022-12-18T08:05:38;99.55;;;35.72;;
64395;SDS011;50717;53.360;6.290;2022-12-18T08:08:04;177.40;;;64.75;;
64395;SDS011;50717;53.360;6.290;2022-12-18T08:10:30;93.43;;;40.08;;
64395;SDS011;50717;53.360;6.290;2022-12-18T08:12:56;73.43;;;27.77;;
64395;SDS011;50717;53.360;6.290;2022-12-18T08:15:22;104.25;;;43.53;;
64395;SDS011;50717;53.360;6.290;2022-12-18T08:17:48;70.60;;;30.42;;
64395;SDS011;50717;53.360;6.290;2022-12-18T08:20:14;95.68;;;45.88;;
64395;SDS011;50717;53.360;6.290;2022-12-18T08:22:42;118.18;;;58.20;;
64395;SDS011;50717;53.360;6.290;2022-12-18T08:25:08;144.25;;;66.03;;
64395;SDS011;50717;53.360;6.290;2022-12-18T08:27:34;133.27;;;52.78;;
64395;SDS011;50717;53.360;6.290;2022-12-18T08:30:00;235.27;;;90.97;;
64395;SDS011;50717;53.360;6.290;2022-12-18T08:32:26;114.93;;;43.28;;
64395;SDS011;50717;53.360;6.290;2022-12-18T08:34:53;72.28;;;29.35;;
64395;SDS011;50717;53.360;6.290;2022-12-18T08:37:19;59.95;;;25.85;;
64395;SDS011;50717;53.360;6.290;2022-12-18T08:39:45;59.28;;;24.88;;
64395;SDS011;50717;53.360;6.290;2022-12-18T08:42:11;66.35;;;26.83;;
64395;SDS011;50717;53.360;6.290;2022-12-18T08:44:55;61.75;;;27.33;;
64395;SDS011;50717;53.360;6.290;2022-12-18T08:47:21;56.25;;;25.42;;
64395;SDS011;50717;53.360;6.290;2022-12-18T08:49:47;68.60;;;25.50;;
64395;SDS011;50717;53.360;6.290;2022-12-18T08:52:14;58.38;;;25.83;;
64395;SDS011;50717;53.360;6.290;2022-12-18T08:54:40;60.45;;;27.83;;
64395;SDS011;50717;53.360;6.290;2022-12-18T08:57:06;59.05;;;25.90;;
64395;SDS011;50717;53.360;6.290;2022-12-18T08:59:32;57.35;;;24.90;;
64395;SDS011;50717;53.360;6.290;2022-12-18T09:01:58;54.10;;;23.17;;
64395;SDS011;50717;53.360;6.290;2022-12-18T09:04:24;51.42;;;23.55;;
64395;SDS011;50717;53.360;6.290;2022-12-18T09:06:50;52.72;;;24.63;;
64395;SDS011;50717;53.360;6.290;2022-12-18T09:09:16;52.65;;;23.45;;
64395;SDS011;50717;53.360;6.290;2022-12-18T09:11:42;44.35;;;21.00;;
64395;SDS011;50717;53.360;6.290;2022-12-18T09:14:09;49.00;;;21.38;;
64395;SDS011;50717;53.360;6.290;2022-12-18T09:19:02;51.67;;;22.23;;
64395;SDS011;50717;53.360;6.290;2022-12-18T09:21:29;46.60;;;21.05;;
64395;SDS011;50717;53.360;6.290;2022-12-18T09:23:55;49.78;;;21.83;;
64395;SDS011;50717;53.360;6.290;2022-12-18T09:26:22;46.42;;;20.23;;
64395;SDS011;50717;53.360;6.290;2022-12-18T09:28:49;40.25;;;18.48;;
64395;SDS011;50717;53.360;6.290;2022-12-18T09:31:15;43.58;;;18.92;;
64395;SDS011;50717;53.360;6.290;2022-12-18T09:33:41;44.45;;;18.60;;
64395;SDS011;50717;53.360;6.290;2022-12-18T09:36:09;42.15;;;18.77;;
64395;SDS011;50717;53.360;6.290;2022-12-18T09:38:36;44.03;;;18.85;;
64395;SDS011;50717;53.360;6.290;2022-12-18T09:41:04;44.78;;;17.65;;
64395;SDS011;50717;53.360;6.290;2022-12-18T09:43:40;36.38;;;17.25;;
64395;SDS011;50717;53.360;6.290;2022-12-18T09:46:07;41.67;;;18.60;;
64395;SDS011;50717;53.360;6.290;2022-12-18T09:48:35;38.28;;;18.58;;
64395;SDS011;50717;53.360;6.290;2022-12-18T09:51:07;46.17;;;19.80;;
64395;SDS011;50717;53.360;6.290;2022-12-18T09:53:37;38.70;;;17.13;;
64395;SDS011;50717;53.360;6.290;2022-12-18T09:56:04;37.38;;;17.42;;
64395;SDS011;50717;53.360;6.290;2022-12-18T09:58:36;37.78;;;17.20;;
64395;SDS011;50717;53.360;6.290;2022-12-18T10:01:09;42.05;;;19.30;;
64395;SDS011;50717;53.360;6.290;2022-12-18T10:03:35;44.50;;;19.40;;
64395;SDS011;50717;53.360;6.290;2022-12-18T10:06:04;37.22;;;17.70;;
64395;SDS011;50717;53.360;6.290;2022-12-18T10:08:42;40.10;;;17.10;;
64395;SDS011;50717;53.360;6.290;2022-12-18T10:13:42;44.47;;;17.90;;
64395;SDS011;50717;53.360;6.290;2022-12-18T10:16:13;45.70;;;18.88;;
64395;SDS011;50717;53.360;6.290;2022-12-18T10:21:18;44.30;;;17.67;;
64395;SDS011;50717;53.360;6.290;2022-12-18T10:26:10;42.92;;;16.95;;
64395;SDS011;50717;53.360;6.290;2022-12-18T10:28:40;39.15;;;16.52;;
64395;SDS011;50717;53.360;6.290;2022-12-18T10:31:14;34.20;;;15.52;;
64395;SDS011;50717;53.360;6.290;2022-12-18T10:33:42;32.42;;;15.52;;
64395;SDS011;50717;53.360;6.290;2022-12-18T10:36:08;28.67;;;14.07;;
64395;SDS011;50717;53.360;6.290;2022-12-18T10:38:35;29.98;;;14.52;;
64395;SDS011;50717;53.360;6.290;2022-12-18T10:41:05;28.05;;;13.98;;
64395;SDS011;50717;53.360;6.290;2022-12-18T10:43:39;37.33;;;15.88;;
64395;SDS011;50717;53.360;6.290;2022-12-18T10:51:01;29.80;;;13.45;;
64395;SDS011;50717;53.360;6.290;2022-12-18T10:53:29;27.75;;;13.48;;
64395;SDS011;50717;53.360;6.290;2022-12-18T10:55:57;29.30;;;13.73;;
64395;SDS011;50717;53.360;6.290;2022-12-18T10:58:31;27.75;;;13.02;;
64395;SDS011;50717;53.360;6.290;2022-12-18T11:03:31;27.48;;;12.07;;
64395;SDS011;50717;53.360;6.290;2022-12-18T11:06:04;30.75;;;15.65;;
64395;SDS011;50717;53.360;6.290;2022-12-18T11:08:30;25.92;;;13.98;;
64395;SDS011;50717;53.360;6.290;2022-12-18T11:10:56;27.02;;;12.68;;
64395;SDS011;50717;53.360;6.290;2022-12-18T11:13:26;22.40;;;11.30;;
64395;SDS011;50717;53.360;6.290;2022-12-18T11:15:53;21.83;;;11.10;;
64395;SDS011;50717;53.360;6.290;2022-12-18T11:18:23;20.30;;;11.25;;
64395;SDS011;50717;53.360;6.290;2022-12-18T11:20:54;23.63;;;11.27;;
64395;SDS011;50717;53.360;6.290;2022-12-18T11:23:22;24.40;;;12.32;;
64395;SDS011;50717;53.360;6.290;2022-12-18T11:33:54;30.85;;;13.50;;
64395;SDS011;50717;53.360;6.290;2022-12-18T11:36:22;27.13;;;12.27;;
64395;SDS011;50717;53.360;6.290;2022-12-18T11:41:38;23.88;;;11.48;;
64395;SDS011;50717;53.360;6.290;2022-12-18T11:44:35;22.85;;;11.60;;
64395;SDS011;50717;53.360;6.290;2022-12-18T11:49:39;23.77;;;10.82;;
64395;SDS011;50717;53.360;6.290;2022-12-18T11:54:39;21.85;;;10.32;;
64395;SDS011;50717;53.360;6.290;2022-12-18T11:57:23;22.60;;;11.57;;
64395;SDS011;50717;53.360;6.290;2022-12-18T12:13:39;15.75;;;8.75;;
64395;SDS011;50717;53.360;6.290;2022-12-18T12:26:33;18.75;;;9.10;;
64395;SDS011;50717;53.360;6.290;2022-12-18T12:32:11;14.98;;;8.18;;
64395;SDS011;50717;53.360;6.290;2022-12-18T12:34:44;13.57;;;8.13;;
64395;SDS011;50717;53.360;6.290;2022-12-18T12:39:59;14.68;;;7.45;;
64395;SDS011;50717;53.360;6.290;2022-12-18T12:42:40;14.07;;;7.40;;
64395;SDS011;50717;53.360;6.290;2022-12-18T12:45:28;13.18;;;7.85;;
64395;SDS011;50717;53.360;6.290;2022-12-18T12:47:56;13.23;;;7.00;;
64395;SDS011;50717;53.360;6.290;2022-12-18T12:50:23;12.60;;;7.10;;
64395;SDS011;50717;53.360;6.290;2022-12-18T12:55:25;12.95;;;7.07;;
64395;SDS011;50717;53.360;6.290;2022-12-18T13:00:18;10.85;;;6.20;;
64395;SDS011;50717;53.360;6.290;2022-12-18T13:02:52;15.02;;;8.15;;
64395;SDS011;50717;53.360;6.290;2022-12-18T13:07:51;11.90;;;7.07;;
64395;SDS011;50717;53.360;6.290;2022-12-18T13:17:48;11.82;;;7.50;;
64395;SDS011;50717;53.360;6.290;2022-12-18T13:20:15;18.48;;;7.57;;
64395;SDS011;50717;53.360;6.290;2022-12-18T13:22:44;14.15;;;7.28;;
64395;SDS011;50717;53.360;6.290;2022-12-18T13:45:49;17.75;;;7.07;;
64395;SDS011;50717;53.360;6.290;2022-12-18T13:48:24;17.10;;;6.78;;
64395;SDS011;50717;53.360;6.290;2022-12-18T13:51:02;41.22;;;11.25;;
64395;SDS011;50717;53.360;6.290;2022-12-18T13:53:33;20.90;;;8.77;;
64395;SDS011;50717;53.360;6.290;2022-12-18T13:55:59;11.93;;;6.63;;
64395;SDS011;50717;53.360;6.290;2022-12-18T13:58:26;17.98;;;8.07;;
64395;SDS011;50717;53.360;6.290;2022-12-18T14:00:52;14.75;;;7.85;;
64395;SDS011;50717;53.360;6.290;2022-12-18T14:03:19;21.05;;;9.88;;
64395;SDS011;50717;53.360;6.290;2022-12-18T14:05:46;17.40;;;8.68;;
64395;SDS011;50717;53.360;6.290;2022-12-18T14:08:18;20.77;;;10.07;;
64395;SDS011;50717;53.360;6.290;2022-12-18T14:10:45;12.85;;;7.55;;
64395;SDS011;50717;53.360;6.290;2022-12-18T14:13:15;14.98;;;7.85;;
64395;SDS011;50717;53.360;6.290;2022-12-18T14:15:42;11.07;;;6.30;;
64395;SDS011;50717;53.360;6.290;2022-12-18T14:18:23;22.67;;;10.55;;
64395;SDS011;50717;53.360;6.290;2022-12-18T14:20:50;27.02;;;11.07;;
64395;SDS011;50717;53.360;6.290;2022-12-18T14:23:37;29.33;;;12.75;;
64395;SDS011;50717;53.360;6.290;2022-12-18T14:26:19;29.08;;;13.45;;
64395;SDS011;50717;53.360;6.290;2022-12-18T14:28:45;21.98;;;11.07;;
64395;SDS011;50717;53.360;6.290;2022-12-18T14:31:18;24.15;;;11.60;;
64395;SDS011;50717;53.360;6.290;2022-12-18T14:33:45;49.78;;;19.75;;
64395;SDS011;50717;53.360;6.290;2022-12-18T14:36:13;50.58;;;21.05;;
64395;SDS011;50717;53.360;6.290;2022-12-18T14:38:40;49.30;;;21.42;;
64395;SDS011;50717;53.360;6.290;2022-12-18T14:41:11;21.08;;;10.57;;
64395;SDS011;50717;53.360;6.290;2022-12-18T14:43:39;14.55;;;7.75;;
64395;SDS011;50717;53.360;6.290;2022-12-18T14:46:06;13.70;;;7.85;;
64395;SDS011;50717;53.360;6.290;2022-12-18T14:48:51;14.43;;;7.35;;
64395;SDS011;50717;53.360;6.290;2022-12-18T14:53:53;15.63;;;8.43;;
64395;SDS011;50717;53.360;6.290;2022-12-18T14:58:47;13.80;;;7.18;;
64395;SDS011;50717;53.360;6.290;2022-12-18T15:01:20;12.35;;;7.35;;
64395;SDS011;50717;53.360;6.290;2022-12-18T15:03:47;12.57;;;7.22;;
64395;SDS011;50717;53.360;6.290;2022-12-18T15:08:53;12.95;;;6.60;;
64395;SDS011;50717;53.360;6.290;2022-12-18T15:11:34;12.15;;;7.13;;
64395;SDS011;50717;53.360;6.290;2022-12-18T15:14:21;11.77;;;6.57;;
64395;SDS011;50717;53.360;6.290;2022-12-18T15:16:51;13.52;;;6.15;;
64395;SDS011;50717;53.360;6.290;2022-12-18T15:19:17;14.57;;;6.60;;
64395;SDS011;50717;53.360;6.290;2022-12-18T15:21:44;13.80;;;7.05;;
64395;SDS011;50717;53.360;6.290;2022-12-18T15:24:20;16.23;;;6.90;;
64395;SDS011;50717;53.360;6.290;2022-12-18T15:26:49;12.98;;;7.00;;
64395;SDS011;50717;53.360;6.290;2022-12-18T15:29:18;12.30;;;6.72;;
64395;SDS011;50717;53.360;6.290;2022-12-18T15:31:45;15.20;;;7.00;;
64395;SDS011;50717;53.360;6.290;2022-12-18T15:34:23;14.23;;;7.10;;
64395;SDS011;50717;53.360;6.290;2022-12-18T15:36:50;11.88;;;7.20;;
64395;SDS011;50717;53.360;6.290;2022-12-18T15:39:16;13.55;;;6.57;;
64395;SDS011;50717;53.360;6.290;2022-12-18T15:41:42;15.10;;;7.30;;
64395;SDS011;50717;53.360;6.290;2022-12-18T15:44:29;13.57;;;7.32;;
64395;SDS011;50717;53.360;6.290;2022-12-18T15:46:55;16.63;;;8.38;;
64395;SDS011;50717;53.360;6.290;2022-12-18T15:49:21;13.57;;;7.80;;
64395;SDS011;50717;53.360;6.290;2022-12-18T15:51:54;14.13;;;8.38;;
64395;SDS011;50717;53.360;6.290;2022-12-18T15:54:20;15.60;;;8.27;;
64395;SDS011;50717;53.360;6.290;2022-12-18T15:57:08;17.13;;;8.73;;
64395;SDS011;50717;53.360;6.290;2022-12-18T15:59:51;15.57;;;8.77;;
64395;SDS011;50717;53.360;6.290;2022-12-18T16:02:18;16.05;;;8.10;;
64395;SDS011;50717;53.360;6.290;2022-12-18T16:04:44;15.18;;;8.75;;
64395;SDS011;50717;53.360;6.290;2022-12-18T16:07:11;14.25;;;8.70;;
64395;SDS011;50717;53.360;6.290;2022-12-18T16:09:37;18.20;;;10.15;;
64395;SDS011;50717;53.360;6.290;2022-12-18T16:12:04;20.08;;;9.75;;
64395;SDS011;50717;53.360;6.290;2022-12-18T16:16:57;15.32;;;9.27;;
64395;SDS011;50717;53.360;6.290;2022-12-18T16:19:23;17.73;;;9.48;;
64395;SDS011;50717;53.360;6.290;2022-12-18T16:21:50;18.77;;;9.50;;
64395;SDS011;50717;53.360;6.290;2022-12-18T16:24:17;15.73;;;8.68;;
64395;SDS011;50717;53.360;6.290;2022-12-18T16:26:44;16.25;;;9.05;;
64395;SDS011;50717;53.360;6.290;2022-12-18T16:31:36;29.40;;;11.15;;
64395;SDS011;50717;53.360;6.290;2022-12-18T16:34:22;18.27;;;9.38;;
64395;SDS011;50717;53.360;6.290;2022-12-18T16:36:49;17.08;;;9.65;;
64395;SDS011;50717;53.360;6.290;2022-12-18T16:39:15;18.02;;;9.25;;
64395;SDS011;50717;53.360;6.290;2022-12-18T16:41:42;17.70;;;9.05;;
64395;SDS011;50717;53.360;6.290;2022-12-18T16:44:08;18.15;;;8.30;;
64395;SDS011;50717;53.360;6.290;2022-12-18T16:46:35;18.70;;;9.05;;
64395;SDS011;50717;53.360;6.290;2022-12-18T16:49:02;16.45;;;9.73;;
64395;SDS011;50717;53.360;6.290;2022-12-18T16:51:28;17.30;;;9.15;;
64395;SDS011;50717;53.360;6.290;2022-12-18T16:53:55;17.48;;;9.98;;
64395;SDS011;50717;53.360;6.290;2022-12-18T16:56:22;16.50;;;9.57;;
64395;SDS011;50717;53.360;6.290;2022-12-18T16:58:52;19.23;;;9.27;;
64395;SDS011;50717;53.360;6.290;2022-12-18T17:01:18;16.13;;;8.77;;